sensor_id;sensor_type;location;lat;lon;timestamp;temperature;humidity
27697;DHT22;15105;56.514;21.002;2022-08-16T00:00:16;23.80;99.90
27697;DHT22;15105;56.514;21.002;2022-08-16T00:02:48;23.70;99.90
27697;DHT22;15105;56.514;21.002;2022-08-16T00:05:18;23.70;99.90
27697;DHT22;15105;56.514;21.002;2022-08-16T00:07:46;23.60;99.90
27697;DHT22;15105;56.514;21.002;2022-08-16T00:10:14;23.60;99.90
27697;DHT22;15105;56.514;21.002;2022-08-16T00:12:47;23.60;99.90
27697;DHT22;15105;56.514;21.002;2022-08-16T00:15:21;23.60;99.90
27697;DHT22;15105;56.514;21.002;2022-08-16T00:17:49;23.60;99.90
27697;DHT22;15105;56.514;21.002;2022-08-16T00:20:23;23.60;99.90
27697;DHT22;15105;56.514;21.002;2022-08-16T00:22:51;23.50;99.90
27697;DHT22;15105;56.514;21.002;2022-08-16T00:25:21;23.50;99.90
27697;DHT22;15105;56.514;21.002;2022-08-16T00:28:10;23.50;99.90
27697;DHT22;15105;56.514;21.002;2022-08-16T00:30:37;23.60;99.90
27697;DHT22;15105;56.514;21.002;2022-08-16T00:33:05;23.60;99.90
27697;DHT22;15105;56.514;21.002;2022-08-16T00:35:35;23.60;99.90
27697;DHT22;15105;56.514;21.002;2022-08-16T00:38:04;23.60;99.90
27697;DHT22;15105;56.514;21.002;2022-08-16T00:40:52;23.70;99.90
27697;DHT22;15105;56.514;21.002;2022-08-16T00:43:23;23.70;99.90
27697;DHT22;15105;56.514;21.002;2022-08-16T00:46:20;23.70;99.90
27697;DHT22;15105;56.514;21.002;2022-08-16T00:48:59;23.70;99.90
27697;DHT22;15105;56.514;21.002;2022-08-16T00:51:28;23.80;99.90
27697;DHT22;15105;56.514;21.002;2022-08-16T00:53:58;23.80;99.90
27697;DHT22;15105;56.514;21.002;2022-08-16T00:56:29;23.80;99.90
27697;DHT22;15105;56.514;21.002;2022-08-16T00:59:19;23.80;99.90
27697;DHT22;15105;56.514;21.002;2022-08-16T01:01:50;23.80;99.90
27697;DHT22;15105;56.514;21.002;2022-08-16T01:04:19;23.80;99.90
27697;DHT22;15105;56.514;21.002;2022-08-16T01:06:59;23.90;99.90
27697;DHT22;15105;56.514;21.002;2022-08-16T01:09:30;23.80;99.90
27697;DHT22;15105;56.514;21.002;2022-08-16T01:12:00;23.80;99.90
27697;DHT22;15105;56.514;21.002;2022-08-16T01:14:31;23.80;99.90
27697;DHT22;15105;56.514;21.002;2022-08-16T01:17:00;23.80;99.90
27697;DHT22;15105;56.514;21.002;2022-08-16T01:19:41;23.70;99.90
27697;DHT22;15105;56.514;21.002;2022-08-16T01:22:27;23.60;99.90
27697;DHT22;15105;56.514;21.002;2022-08-16T01:25:30;23.50;99.90
27697;DHT22;15105;56.514;21.002;2022-08-16T01:28:05;23.40;99.90
27697;DHT22;15105;56.514;21.002;2022-08-16T01:30:39;23.30;99.90
27697;DHT22;15105;56.514;21.002;2022-08-16T01:33:18;23.30;99.90
27697;DHT22;15105;56.514;21.002;2022-08-16T01:35:57;23.30;99.90
27697;DHT22;15105;56.514;21.002;2022-08-16T01:38:30;23.20;99.90
27697;DHT22;15105;56.514;21.002;2022-08-16T01:41:26;23.20;99.90
27697;DHT22;15105;56.514;21.002;2022-08-16T01:43:56;23.20;99.90
27697;DHT22;15105;56.514;21.002;2022-08-16T01:46:43;23.20;99.90
27697;DHT22;15105;56.514;21.002;2022-08-16T01:51:42;23.10;99.90
27697;DHT22;15105;56.514;21.002;2022-08-16T01:54:11;23.10;99.90
27697;DHT22;15105;56.514;21.002;2022-08-16T01:56:41;23.10;99.90
27697;DHT22;15105;56.514;21.002;2022-08-16T01:59:14;23.00;99.90
27697;DHT22;15105;56.514;21.002;2022-08-16T02:01:44;23.00;99.90
27697;DHT22;15105;56.514;21.002;2022-08-16T02:04:16;23.00;99.90
27697;DHT22;15105;56.514;21.002;2022-08-16T02:07:03;23.00;99.90
27697;DHT22;15105;56.514;21.002;2022-08-16T02:09:51;23.00;99.90
27697;DHT22;15105;56.514;21.002;2022-08-16T02:12:29;23.00;99.90
27697;DHT22;15105;56.514;21.002;2022-08-16T02:15:18;22.90;99.90
27697;DHT22;15105;56.514;21.002;2022-08-16T02:17:52;22.90;99.90
27697;DHT22;15105;56.514;21.002;2022-08-16T02:20:19;22.90;99.90
27697;DHT22;15105;56.514;21.002;2022-08-16T02:22:57;23.00;99.90
27697;DHT22;15105;56.514;21.002;2022-08-16T02:25:26;23.00;99.90
27697;DHT22;15105;56.514;21.002;2022-08-16T02:28:14;22.90;99.90
27697;DHT22;15105;56.514;21.002;2022-08-16T02:30:43;22.90;99.90
27697;DHT22;15105;56.514;21.002;2022-08-16T02:33:17;22.90;99.90
27697;DHT22;15105;56.514;21.002;2022-08-16T02:35:51;22.90;99.90
27697;DHT22;15105;56.514;21.002;2022-08-16T02:38:25;22.90;99.90
27697;DHT22;15105;56.514;21.002;2022-08-16T02:40:53;22.90;99.90
27697;DHT22;15105;56.514;21.002;2022-08-16T02:43:26;22.90;99.90
27697;DHT22;15105;56.514;21.002;2022-08-16T02:45:57;22.90;99.90
27697;DHT22;15105;56.514;21.002;2022-08-16T02:48:26;22.90;99.90
27697;DHT22;15105;56.514;21.002;2022-08-16T02:51:01;22.90;99.90
27697;DHT22;15105;56.514;21.002;2022-08-16T02:53:49;22.90;99.90
27697;DHT22;15105;56.514;21.002;2022-08-16T02:56:18;22.90;99.90
27697;DHT22;15105;56.514;21.002;2022-08-16T02:58:48;22.90;99.90
27697;DHT22;15105;56.514;21.002;2022-08-16T03:01:19;22.90;99.90
27697;DHT22;15105;56.514;21.002;2022-08-16T03:04:03;22.90;99.90
27697;DHT22;15105;56.514;21.002;2022-08-16T03:06:52;22.90;99.90
27697;DHT22;15105;56.514;21.002;2022-08-16T03:09:23;22.90;99.90
27697;DHT22;15105;56.514;21.002;2022-08-16T03:11:54;22.90;99.90
27697;DHT22;15105;56.514;21.002;2022-08-16T03:14:21;22.90;99.90
27697;DHT22;15105;56.514;21.002;2022-08-16T03:16:51;22.80;99.90
27697;DHT22;15105;56.514;21.002;2022-08-16T03:19:27;22.80;99.90
27697;DHT22;15105;56.514;21.002;2022-08-16T03:22:14;22.80;99.90
27697;DHT22;15105;56.514;21.002;2022-08-16T03:24:54;22.80;99.90
27697;DHT22;15105;56.514;21.002;2022-08-16T03:27:23;22.70;99.90
27697;DHT22;15105;56.514;21.002;2022-08-16T03:29:58;22.70;99.90
27697;DHT22;15105;56.514;21.002;2022-08-16T03:32:25;22.70;99.90
27697;DHT22;15105;56.514;21.002;2022-08-16T03:34:52;22.70;99.90
27697;DHT22;15105;56.514;21.002;2022-08-16T03:37:20;22.70;99.90
27697;DHT22;15105;56.514;21.002;2022-08-16T03:39:47;22.70;99.90
27697;DHT22;15105;56.514;21.002;2022-08-16T03:42:22;22.80;99.90
27697;DHT22;15105;56.514;21.002;2022-08-16T03:44:49;22.70;99.90
27697;DHT22;15105;56.514;21.002;2022-08-16T03:47:17;22.80;99.90
27697;DHT22;15105;56.514;21.002;2022-08-16T03:49:48;22.80;99.90
27697;DHT22;15105;56.514;21.002;2022-08-16T03:52:21;22.80;99.90
27697;DHT22;15105;56.514;21.002;2022-08-16T03:54:57;22.80;99.90
27697;DHT22;15105;56.514;21.002;2022-08-16T03:57:26;22.80;99.90
27697;DHT22;15105;56.514;21.002;2022-08-16T04:00:17;22.90;99.90
27697;DHT22;15105;56.514;21.002;2022-08-16T04:03:03;23.20;99.90
27697;DHT22;15105;56.514;21.002;2022-08-16T04:05:44;23.40;99.90
27697;DHT22;15105;56.514;21.002;2022-08-16T04:08:13;23.60;99.90
27697;DHT22;15105;56.514;21.002;2022-08-16T04:10:51;23.70;99.90
27697;DHT22;15105;56.514;21.002;2022-08-16T04:13:18;23.90;99.90
27697;DHT22;15105;56.514;21.002;2022-08-16T04:16:06;24.00;99.90
27697;DHT22;15105;56.514;21.002;2022-08-16T04:18:34;23.90;99.90
27697;DHT22;15105;56.514;21.002;2022-08-16T04:21:11;23.80;99.90
27697;DHT22;15105;56.514;21.002;2022-08-16T04:23:55;23.60;99.90
27697;DHT22;15105;56.514;21.002;2022-08-16T04:26:22;23.50;99.90
27697;DHT22;15105;56.514;21.002;2022-08-16T04:28:49;23.50;99.90
27697;DHT22;15105;56.514;21.002;2022-08-16T04:31:23;23.50;99.90
27697;DHT22;15105;56.514;21.002;2022-08-16T04:33:50;23.50;99.90
27697;DHT22;15105;56.514;21.002;2022-08-16T04:36:19;23.60;99.90
27697;DHT22;15105;56.514;21.002;2022-08-16T04:38:46;23.60;99.90
27697;DHT22;15105;56.514;21.002;2022-08-16T04:41:17;23.70;99.90
27697;DHT22;15105;56.514;21.002;2022-08-16T04:43:59;23.70;99.90
27697;DHT22;15105;56.514;21.002;2022-08-16T04:46:26;23.90;99.90
27697;DHT22;15105;56.514;21.002;2022-08-16T04:49:13;24.00;99.90
27697;DHT22;15105;56.514;21.002;2022-08-16T04:51:40;24.10;99.90
27697;DHT22;15105;56.514;21.002;2022-08-16T04:54:08;24.40;99.90
27697;DHT22;15105;56.514;21.002;2022-08-16T04:56:36;25.20;99.90
27697;DHT22;15105;56.514;21.002;2022-08-16T04:59:11;25.70;99.90
27697;DHT22;15105;56.514;21.002;2022-08-16T05:01:42;26.20;99.90
27697;DHT22;15105;56.514;21.002;2022-08-16T05:04:24;26.30;99.90
27697;DHT22;15105;56.514;21.002;2022-08-16T05:06:56;26.30;99.90
27697;DHT22;15105;56.514;21.002;2022-08-16T05:09:23;26.20;99.90
27697;DHT22;15105;56.514;21.002;2022-08-16T05:11:50;26.10;99.90
27697;DHT22;15105;56.514;21.002;2022-08-16T05:14:17;25.90;99.90
27697;DHT22;15105;56.514;21.002;2022-08-16T05:17:04;25.80;99.90
27697;DHT22;15105;56.514;21.002;2022-08-16T05:19:32;25.70;99.90
27697;DHT22;15105;56.514;21.002;2022-08-16T05:22:02;25.70;99.90
27697;DHT22;15105;56.514;21.002;2022-08-16T05:24:30;25.70;99.90
27697;DHT22;15105;56.514;21.002;2022-08-16T05:26:57;25.50;99.90
27697;DHT22;15105;56.514;21.002;2022-08-16T05:29:24;25.50;99.90
27697;DHT22;15105;56.514;21.002;2022-08-16T05:32:11;25.50;99.90
27697;DHT22;15105;56.514;21.002;2022-08-16T05:34:58;25.50;99.90
27697;DHT22;15105;56.514;21.002;2022-08-16T05:37:25;25.50;99.90
27697;DHT22;15105;56.514;21.002;2022-08-16T05:40:07;25.50;99.90
27697;DHT22;15105;56.514;21.002;2022-08-16T05:42:44;25.50;99.90
27697;DHT22;15105;56.514;21.002;2022-08-16T05:45:12;25.50;99.90
27697;DHT22;15105;56.514;21.002;2022-08-16T05:47:47;25.60;99.90
27697;DHT22;15105;56.514;21.002;2022-08-16T05:50:25;25.60;99.90
27697;DHT22;15105;56.514;21.002;2022-08-16T05:53:00;25.70;99.90
27697;DHT22;15105;56.514;21.002;2022-08-16T05:55:27;25.70;99.90
27697;DHT22;15105;56.514;21.002;2022-08-16T05:57:55;25.70;99.90
27697;DHT22;15105;56.514;21.002;2022-08-16T06:00:22;25.80;99.90
27697;DHT22;15105;56.514;21.002;2022-08-16T06:02:51;25.70;99.90
27697;DHT22;15105;56.514;21.002;2022-08-16T06:05:19;25.70;99.90
27697;DHT22;15105;56.514;21.002;2022-08-16T06:07:46;25.70;99.90
27697;DHT22;15105;56.514;21.002;2022-08-16T06:10:24;25.70;99.90
27697;DHT22;15105;56.514;21.002;2022-08-16T06:12:59;25.80;99.90
27697;DHT22;15105;56.514;21.002;2022-08-16T06:15:26;25.80;99.90
27697;DHT22;15105;56.514;21.002;2022-08-16T06:17:56;25.90;99.90
27697;DHT22;15105;56.514;21.002;2022-08-16T06:20:27;26.00;99.90
27697;DHT22;15105;56.514;21.002;2022-08-16T06:23:03;26.10;99.90
27697;DHT22;15105;56.514;21.002;2022-08-16T06:25:43;26.20;99.90
27697;DHT22;15105;56.514;21.002;2022-08-16T06:28:19;26.20;99.90
27697;DHT22;15105;56.514;21.002;2022-08-16T06:31:03;26.30;99.90
27697;DHT22;15105;56.514;21.002;2022-08-16T06:33:31;26.30;99.90
27697;DHT22;15105;56.514;21.002;2022-08-16T06:36:09;26.40;99.90
27697;DHT22;15105;56.514;21.002;2022-08-16T06:38:40;26.50;99.90
27697;DHT22;15105;56.514;21.002;2022-08-16T06:41:22;26.50;99.90
27697;DHT22;15105;56.514;21.002;2022-08-16T06:43:53;26.50;99.90
27697;DHT22;15105;56.514;21.002;2022-08-16T06:46:28;26.60;99.90
27697;DHT22;15105;56.514;21.002;2022-08-16T06:48:59;26.60;99.90
27697;DHT22;15105;56.514;21.002;2022-08-16T06:51:27;26.70;99.90
27697;DHT22;15105;56.514;21.002;2022-08-16T06:54:14;26.70;99.90
27697;DHT22;15105;56.514;21.002;2022-08-16T06:56:42;26.90;99.90
27697;DHT22;15105;56.514;21.002;2022-08-16T06:59:09;26.90;99.90
27697;DHT22;15105;56.514;21.002;2022-08-16T07:01:36;27.00;99.90
27697;DHT22;15105;56.514;21.002;2022-08-16T07:04:19;27.10;99.90
27697;DHT22;15105;56.514;21.002;2022-08-16T07:07:01;27.00;99.90
27697;DHT22;15105;56.514;21.002;2022-08-16T07:09:29;26.90;99.90
27697;DHT22;15105;56.514;21.002;2022-08-16T07:11:57;26.80;99.90
27697;DHT22;15105;56.514;21.002;2022-08-16T07:14:31;26.80;99.90
27697;DHT22;15105;56.514;21.002;2022-08-16T07:16:59;26.90;99.90
27697;DHT22;15105;56.514;21.002;2022-08-16T07:19:29;26.90;99.90
27697;DHT22;15105;56.514;21.002;2022-08-16T07:22:18;27.00;99.90
27697;DHT22;15105;56.514;21.002;2022-08-16T07:25:12;27.00;99.90
27697;DHT22;15105;56.514;21.002;2022-08-16T07:27:41;27.00;99.90
27697;DHT22;15105;56.514;21.002;2022-08-16T07:30:13;27.10;99.90
27697;DHT22;15105;56.514;21.002;2022-08-16T07:33:00;27.10;99.90
27697;DHT22;15105;56.514;21.002;2022-08-16T07:35:28;27.00;99.90
27697;DHT22;15105;56.514;21.002;2022-08-16T07:37:55;27.10;99.90
27697;DHT22;15105;56.514;21.002;2022-08-16T07:40:22;27.00;99.90
27697;DHT22;15105;56.514;21.002;2022-08-16T07:43:09;27.10;99.90
27697;DHT22;15105;56.514;21.002;2022-08-16T07:45:37;27.20;99.90
27697;DHT22;15105;56.514;21.002;2022-08-16T07:48:11;27.30;99.90
27697;DHT22;15105;56.514;21.002;2022-08-16T07:50:40;27.50;99.90
27697;DHT22;15105;56.514;21.002;2022-08-16T07:53:25;27.80;99.90
27697;DHT22;15105;56.514;21.002;2022-08-16T07:55:55;28.20;99.90
27697;DHT22;15105;56.514;21.002;2022-08-16T07:58:22;28.60;99.90
27697;DHT22;15105;56.514;21.002;2022-08-16T08:01:03;28.90;99.90
27697;DHT22;15105;56.514;21.002;2022-08-16T08:03:40;29.20;99.90
27697;DHT22;15105;56.514;21.002;2022-08-16T08:06:19;29.60;99.90
27697;DHT22;15105;56.514;21.002;2022-08-16T08:08:50;29.80;99.90
27697;DHT22;15105;56.514;21.002;2022-08-16T08:11:26;30.10;99.90
27697;DHT22;15105;56.514;21.002;2022-08-16T08:13:56;30.20;99.90
27697;DHT22;15105;56.514;21.002;2022-08-16T08:16:30;30.40;99.90
27697;DHT22;15105;56.514;21.002;2022-08-16T08:18:59;30.50;99.90
27697;DHT22;15105;56.514;21.002;2022-08-16T08:21:30;30.50;99.90
27697;DHT22;15105;56.514;21.002;2022-08-16T08:24:18;30.50;99.90
27697;DHT22;15105;56.514;21.002;2022-08-16T08:26:46;30.60;99.90
27697;DHT22;15105;56.514;21.002;2022-08-16T08:29:16;30.40;99.90
27697;DHT22;15105;56.514;21.002;2022-08-16T08:31:51;30.20;99.90
27697;DHT22;15105;56.514;21.002;2022-08-16T08:34:20;29.90;99.90
27697;DHT22;15105;56.514;21.002;2022-08-16T08:36:49;29.80;99.90
27697;DHT22;15105;56.514;21.002;2022-08-16T08:39:20;29.70;99.90
27697;DHT22;15105;56.514;21.002;2022-08-16T08:41:52;29.60;99.90
27697;DHT22;15105;56.514;21.002;2022-08-16T08:44:29;29.50;99.90
27697;DHT22;15105;56.514;21.002;2022-08-16T08:47:02;29.50;99.90
27697;DHT22;15105;56.514;21.002;2022-08-16T08:49:49;29.50;99.90
27697;DHT22;15105;56.514;21.002;2022-08-16T08:52:23;29.60;99.90
27697;DHT22;15105;56.514;21.002;2022-08-16T08:55:06;29.50;99.90
27697;DHT22;15105;56.514;21.002;2022-08-16T08:57:45;29.40;99.90
27697;DHT22;15105;56.514;21.002;2022-08-16T09:00:17;29.50;99.90
27697;DHT22;15105;56.514;21.002;2022-08-16T09:02:52;29.60;99.90
27697;DHT22;15105;56.514;21.002;2022-08-16T09:05:22;29.70;99.90
27697;DHT22;15105;56.514;21.002;2022-08-16T09:08:05;29.80;99.90
27697;DHT22;15105;56.514;21.002;2022-08-16T09:10:34;29.80;99.90
27697;DHT22;15105;56.514;21.002;2022-08-16T09:13:06;29.90;99.90
27697;DHT22;15105;56.514;21.002;2022-08-16T09:15:36;29.90;99.90
27697;DHT22;15105;56.514;21.002;2022-08-16T09:18:04;29.90;99.90
27697;DHT22;15105;56.514;21.002;2022-08-16T09:20:52;29.90;99.90
27697;DHT22;15105;56.514;21.002;2022-08-16T09:23:29;29.80;99.90
27697;DHT22;15105;56.514;21.002;2022-08-16T09:26:09;29.80;99.90
27697;DHT22;15105;56.514;21.002;2022-08-16T09:28:57;29.80;99.90
27697;DHT22;15105;56.514;21.002;2022-08-16T09:31:42;30.00;99.90
27697;DHT22;15105;56.514;21.002;2022-08-16T09:34:10;30.20;99.90
27697;DHT22;15105;56.514;21.002;2022-08-16T09:36:45;30.50;99.90
27697;DHT22;15105;56.514;21.002;2022-08-16T09:39:13;30.80;99.90
27697;DHT22;15105;56.514;21.002;2022-08-16T09:41:43;31.20;99.90
27697;DHT22;15105;56.514;21.002;2022-08-16T09:44:23;31.30;99.90
27697;DHT22;15105;56.514;21.002;2022-08-16T09:47:10;31.30;99.90
27697;DHT22;15105;56.514;21.002;2022-08-16T09:49:38;31.60;99.90
27697;DHT22;15105;56.514;21.002;2022-08-16T09:52:08;31.60;99.90
27697;DHT22;15105;56.514;21.002;2022-08-16T09:54:36;31.60;99.90
27697;DHT22;15105;56.514;21.002;2022-08-16T09:57:04;31.40;99.90
27697;DHT22;15105;56.514;21.002;2022-08-16T09:59:32;31.20;99.90
27697;DHT22;15105;56.514;21.002;2022-08-16T10:02:07;31.10;99.90
27697;DHT22;15105;56.514;21.002;2022-08-16T10:04:55;30.80;99.90
27697;DHT22;15105;56.514;21.002;2022-08-16T10:07:27;30.70;99.90
27697;DHT22;15105;56.514;21.002;2022-08-16T10:10:12;30.50;99.90
27697;DHT22;15105;56.514;21.002;2022-08-16T10:12:56;30.20;99.90
27697;DHT22;15105;56.514;21.002;2022-08-16T10:15:42;29.90;99.90
27697;DHT22;15105;56.514;21.002;2022-08-16T10:18:20;29.70;99.90
27697;DHT22;15105;56.514;21.002;2022-08-16T10:21:08;29.50;99.90
27697;DHT22;15105;56.514;21.002;2022-08-16T10:23:35;29.30;99.90
27697;DHT22;15105;56.514;21.002;2022-08-16T10:26:03;29.10;99.90
27697;DHT22;15105;56.514;21.002;2022-08-16T10:28:51;29.10;99.90
27697;DHT22;15105;56.514;21.002;2022-08-16T10:31:18;29.10;99.90
27697;DHT22;15105;56.514;21.002;2022-08-16T10:34:05;29.10;99.90
27697;DHT22;15105;56.514;21.002;2022-08-16T10:36:52;29.10;99.90
27697;DHT22;15105;56.514;21.002;2022-08-16T10:39:20;29.10;99.90
27697;DHT22;15105;56.514;21.002;2022-08-16T10:42:00;29.10;99.90
27697;DHT22;15105;56.514;21.002;2022-08-16T10:44:42;29.20;99.90
27697;DHT22;15105;56.514;21.002;2022-08-16T10:47:19;29.30;99.90
27697;DHT22;15105;56.514;21.002;2022-08-16T10:49:48;29.40;99.90
27697;DHT22;15105;56.514;21.002;2022-08-16T10:52:17;29.50;99.90
27697;DHT22;15105;56.514;21.002;2022-08-16T10:54:45;29.60;99.90
27697;DHT22;15105;56.514;21.002;2022-08-16T10:57:33;29.60;99.90
27697;DHT22;15105;56.514;21.002;2022-08-16T11:00:09;29.50;99.90
27697;DHT22;15105;56.514;21.002;2022-08-16T11:02:48;29.50;99.90
27697;DHT22;15105;56.514;21.002;2022-08-16T11:05:31;29.30;99.90
27697;DHT22;15105;56.514;21.002;2022-08-16T11:08:20;29.20;99.90
27697;DHT22;15105;56.514;21.002;2022-08-16T11:11:02;29.10;99.90
27697;DHT22;15105;56.514;21.002;2022-08-16T11:13:38;29.00;99.90
27697;DHT22;15105;56.514;21.002;2022-08-16T11:16:25;28.90;99.90
27697;DHT22;15105;56.514;21.002;2022-08-16T11:19:14;28.80;99.90
27697;DHT22;15105;56.514;21.002;2022-08-16T11:21:43;28.70;99.90
27697;DHT22;15105;56.514;21.002;2022-08-16T11:24:31;28.70;99.90
27697;DHT22;15105;56.514;21.002;2022-08-16T11:27:13;28.70;99.90
27697;DHT22;15105;56.514;21.002;2022-08-16T11:29:48;28.60;99.90
27697;DHT22;15105;56.514;21.002;2022-08-16T11:32:19;28.60;99.90
27697;DHT22;15105;56.514;21.002;2022-08-16T11:34:56;28.70;99.90
27697;DHT22;15105;56.514;21.002;2022-08-16T11:37:40;28.80;99.90
27697;DHT22;15105;56.514;21.002;2022-08-16T11:40:34;28.90;99.90
27697;DHT22;15105;56.514;21.002;2022-08-16T11:43:04;29.00;99.90
27697;DHT22;15105;56.514;21.002;2022-08-16T11:45:35;29.20;99.90
27697;DHT22;15105;56.514;21.002;2022-08-16T11:48:03;29.20;99.90
27697;DHT22;15105;56.514;21.002;2022-08-16T11:50:32;29.30;99.90
27697;DHT22;15105;56.514;21.002;2022-08-16T11:53:00;29.50;99.90
27697;DHT22;15105;56.514;21.002;2022-08-16T11:55:30;29.50;99.90
27697;DHT22;15105;56.514;21.002;2022-08-16T11:58:06;29.70;99.90
27697;DHT22;15105;56.514;21.002;2022-08-16T12:00:38;29.80;99.90
27697;DHT22;15105;56.514;21.002;2022-08-16T12:03:19;30.10;99.90
27697;DHT22;15105;56.514;21.002;2022-08-16T12:06:19;30.20;99.90
27697;DHT22;15105;56.514;21.002;2022-08-16T12:08:56;30.40;99.90
27697;DHT22;15105;56.514;21.002;2022-08-16T12:11:28;30.60;99.90
27697;DHT22;15105;56.514;21.002;2022-08-16T12:14:02;30.60;99.90
27697;DHT22;15105;56.514;21.002;2022-08-16T12:16:30;30.60;99.90
27697;DHT22;15105;56.514;21.002;2022-08-16T12:19:05;30.70;99.90
27697;DHT22;15105;56.514;21.002;2022-08-16T12:21:36;30.80;99.90
27697;DHT22;15105;56.514;21.002;2022-08-16T12:24:27;30.90;99.90
27697;DHT22;15105;56.514;21.002;2022-08-16T12:26:55;30.90;99.90
27697;DHT22;15105;56.514;21.002;2022-08-16T12:29:25;30.90;99.90
27697;DHT22;15105;56.514;21.002;2022-08-16T12:31:55;30.90;99.90
27697;DHT22;15105;56.514;21.002;2022-08-16T12:34:42;31.10;99.90
27697;DHT22;15105;56.514;21.002;2022-08-16T12:37:19;31.10;99.90
27697;DHT22;15105;56.514;21.002;2022-08-16T12:39:54;31.30;99.90
27697;DHT22;15105;56.514;21.002;2022-08-16T12:42:24;31.20;99.90
27697;DHT22;15105;56.514;21.002;2022-08-16T12:45:07;31.10;99.90
27697;DHT22;15105;56.514;21.002;2022-08-16T12:47:35;31.00;99.90
27697;DHT22;15105;56.514;21.002;2022-08-16T12:50:33;30.90;99.90
27697;DHT22;15105;56.514;21.002;2022-08-16T12:53:01;30.80;99.90
27697;DHT22;15105;56.514;21.002;2022-08-16T12:55:29;30.70;99.90
27697;DHT22;15105;56.514;21.002;2022-08-16T12:57:59;30.70;99.90
27697;DHT22;15105;56.514;21.002;2022-08-16T13:00:28;30.70;99.90
27697;DHT22;15105;56.514;21.002;2022-08-16T13:03:01;30.60;99.90
27697;DHT22;15105;56.514;21.002;2022-08-16T13:05:29;30.50;99.90
27697;DHT22;15105;56.514;21.002;2022-08-16T13:07:57;30.40;99.90
27697;DHT22;15105;56.514;21.002;2022-08-16T13:10:26;30.30;99.90
27697;DHT22;15105;56.514;21.002;2022-08-16T13:29:28;30.10;99.90
27697;DHT22;15105;56.514;21.002;2022-08-16T13:32:09;30.10;99.90
27697;DHT22;15105;56.514;21.002;2022-08-16T13:34:57;30.00;99.90
27697;DHT22;15105;56.514;21.002;2022-08-16T13:37:26;30.00;99.90
27697;DHT22;15105;56.514;21.002;2022-08-16T13:42:29;29.90;99.90
27697;DHT22;15105;56.514;21.002;2022-08-16T13:44:58;29.90;99.90
27697;DHT22;15105;56.514;21.002;2022-08-16T13:47:27;29.90;99.90
27697;DHT22;15105;56.514;21.002;2022-08-16T13:49:56;29.80;99.90
27697;DHT22;15105;56.514;21.002;2022-08-16T13:52:23;29.70;99.90
27697;DHT22;15105;56.514;21.002;2022-08-16T13:55:00;29.70;99.90
27697;DHT22;15105;56.514;21.002;2022-08-16T13:57:27;29.70;99.90
27697;DHT22;15105;56.514;21.002;2022-08-16T14:00:15;29.80;99.90
27697;DHT22;15105;56.514;21.002;2022-08-16T14:02:47;29.80;99.90
27697;DHT22;15105;56.514;21.002;2022-08-16T14:05:15;29.70;99.90
27697;DHT22;15105;56.514;21.002;2022-08-16T14:07:47;29.70;99.90
27697;DHT22;15105;56.514;21.002;2022-08-16T14:10:18;29.70;99.90
27697;DHT22;15105;56.514;21.002;2022-08-16T14:12:46;29.70;99.90
27697;DHT22;15105;56.514;21.002;2022-08-16T14:15:14;29.70;99.90
27697;DHT22;15105;56.514;21.002;2022-08-16T14:17:41;29.60;99.90
27697;DHT22;15105;56.514;21.002;2022-08-16T14:20:29;29.60;99.90
27697;DHT22;15105;56.514;21.002;2022-08-16T14:22:56;29.60;99.90
27697;DHT22;15105;56.514;21.002;2022-08-16T14:25:24;29.70;99.90
27697;DHT22;15105;56.514;21.002;2022-08-16T14:27:53;29.60;99.90
27697;DHT22;15105;56.514;21.002;2022-08-16T14:30:21;29.50;99.90
27697;DHT22;15105;56.514;21.002;2022-08-16T14:32:49;29.60;99.90
27697;DHT22;15105;56.514;21.002;2022-08-16T14:35:24;29.60;99.90
27697;DHT22;15105;56.514;21.002;2022-08-16T14:38:12;29.60;99.90
27697;DHT22;15105;56.514;21.002;2022-08-16T14:40:46;29.60;99.90
27697;DHT22;15105;56.514;21.002;2022-08-16T14:43:22;29.60;99.90
27697;DHT22;15105;56.514;21.002;2022-08-16T14:45:49;29.60;99.90
27697;DHT22;15105;56.514;21.002;2022-08-16T14:48:20;29.50;99.90
27697;DHT22;15105;56.514;21.002;2022-08-16T14:50:53;29.60;99.90
27697;DHT22;15105;56.514;21.002;2022-08-16T14:53:21;29.60;99.90
27697;DHT22;15105;56.514;21.002;2022-08-16T14:55:48;29.70;99.90
27697;DHT22;15105;56.514;21.002;2022-08-16T14:58:20;29.80;99.90
27697;DHT22;15105;56.514;21.002;2022-08-16T15:01:02;29.90;99.90
27697;DHT22;15105;56.514;21.002;2022-08-16T15:03:29;30.10;99.90
27697;DHT22;15105;56.514;21.002;2022-08-16T15:05:59;30.20;99.90
27697;DHT22;15105;56.514;21.002;2022-08-16T15:08:28;30.30;99.90
27697;DHT22;15105;56.514;21.002;2022-08-16T15:11:02;30.40;99.90
27697;DHT22;15105;56.514;21.002;2022-08-16T15:13:30;30.50;99.90
27697;DHT22;15105;56.514;21.002;2022-08-16T15:15:57;30.50;99.90
27697;DHT22;15105;56.514;21.002;2022-08-16T15:18:29;30.50;99.90
27697;DHT22;15105;56.514;21.002;2022-08-16T15:20:59;30.70;99.90
27697;DHT22;15105;56.514;21.002;2022-08-16T15:23:28;30.80;99.90
27697;DHT22;15105;56.514;21.002;2022-08-16T15:26:01;30.80;99.90
27697;DHT22;15105;56.514;21.002;2022-08-16T15:28:31;30.60;99.90
27697;DHT22;15105;56.514;21.002;2022-08-16T15:31:00;30.50;99.90
27697;DHT22;15105;56.514;21.002;2022-08-16T15:33:32;30.40;99.90
27697;DHT22;15105;56.514;21.002;2022-08-16T15:36:01;30.20;99.90
27697;DHT22;15105;56.514;21.002;2022-08-16T15:38:29;30.10;99.90
27697;DHT22;15105;56.514;21.002;2022-08-16T15:41:56;29.90;99.90
27697;DHT22;15105;56.514;21.002;2022-08-16T15:44:28;29.80;99.90
27697;DHT22;15105;56.514;21.002;2022-08-16T15:47:28;29.70;99.90
27697;DHT22;15105;56.514;21.002;2022-08-16T15:50:11;29.60;99.90
27697;DHT22;15105;56.514;21.002;2022-08-16T15:52:45;29.50;99.90
27697;DHT22;15105;56.514;21.002;2022-08-16T15:55:12;29.40;99.90
27697;DHT22;15105;56.514;21.002;2022-08-16T15:58:00;29.40;99.90
27697;DHT22;15105;56.514;21.002;2022-08-16T16:00:48;29.30;99.90
27697;DHT22;15105;56.514;21.002;2022-08-16T16:03:21;29.30;99.90
27697;DHT22;15105;56.514;21.002;2022-08-16T16:05:51;29.20;99.90
27697;DHT22;15105;56.514;21.002;2022-08-16T16:08:23;29.10;99.90
27697;DHT22;15105;56.514;21.002;2022-08-16T16:10:53;29.00;99.90
27697;DHT22;15105;56.514;21.002;2022-08-16T16:13:21;28.90;99.90
27697;DHT22;15105;56.514;21.002;2022-08-16T16:15:54;28.90;99.90
27697;DHT22;15105;56.514;21.002;2022-08-16T16:18:26;28.80;99.90
27697;DHT22;15105;56.514;21.002;2022-08-16T16:21:01;28.80;99.90